Time;durP1;ratioP1;P1;durP2;ratioP2;P2;SDS_P1;SDS_P2;PMS_P1;PMS_P2;Temp;Humidity;BMP_temperature;BMP_pressure;BME280_temperature;BME280_humidity;BME280_pressure;Samples;Min_cycle;Max_cycle;Signal;HPM_P1;HPM_P2
2023/10/17 00:00:28;;;;;;;12.35;5.55;;;;;;;;;;1043312;28;20052;-68
2023/10/17 00:01:19;;;;;;;11.02;5.55;;;;;;;;;;1044130;28;20576;-69
2023/10/17 00:01:54;;;;;;;12.98;5.47;;;;;;;;;;1046111;28;20710;-68
2023/10/17 00:02:27;;;;;;;11.02;5.60;;;;;;;;;;1045082;28;20054;-69
2023/10/17 00:02:59;;;;;;;10.48;5.78;;;;;;;;;;1044932;28;20048;-68
2023/10/17 00:03:29;;;;;;;17.17;6.28;;;;;;;;;;1045185;28;20052;-68
2023/10/17 00:04:12;;;;;;;11.95;5.32;;;;;;;;;;1044612;28;20119;-68
2023/10/17 00:04:42;;;;;;;12.50;5.60;;;;;;;;;;1040519;28;20061;-69
2023/10/17 00:05:14;;;;;;;13.07;6.07;;;;;;;;;;1039700;28;20055;-68
2023/10/17 00:05:45;;;;;;;11.18;5.93;;;;;;;;;;1041968;28;20045;-69
2023/10/17 00:06:16;;;;;;;10.63;5.90;;;;;;;;;;1042253;28;20482;-68
2023/10/17 00:06:47;;;;;;;9.18;5.65;;;;;;;;;;1047189;28;20060;-68
2023/10/17 00:07:20;;;;;;;13.48;5.20;;;;;;;;;;1045431;28;20053;-68
2023/10/17 00:07:51;;;;;;;11.07;5.55;;;;;;;;;;1044927;28;20075;-68
2023/10/17 00:08:22;;;;;;;14.73;6.40;;;;;;;;;;1044800;28;20092;-68
2023/10/17 00:08:53;;;;;;;13.65;5.88;;;;;;;;;;1046291;28;20137;-68
2023/10/17 00:09:26;;;;;;;18.00;6.35;;;;;;;;;;1043275;28;20591;-68
2023/10/17 00:09:58;;;;;;;12.68;5.78;;;;;;;;;;1045522;28;20500;-68
2023/10/17 00:10:31;;;;;;;13.63;5.75;;;;;;;;;;1046004;28;20056;-68
2023/10/17 00:11:47;;;;;;;14.25;6.43;;;;;;;;;;1045983;28;20097;-69
2023/10/17 00:12:40;;;;;;;11.45;5.95;;;;;;;;;;1039362;28;20045;-69
2023/10/17 00:13:17;;;;;;;14.70;5.35;;;;;;;;;;1039501;28;20060;-68
2023/10/17 00:14:01;;;;;;;14.75;5.40;;;;;;;;;;1045045;28;23102;-69
2023/10/17 00:14:44;;;;;;;13.13;5.68;;;;;;;;;;1043409;28;20048;-69
2023/10/17 00:15:27;;;;;;;13.52;5.95;;;;;;;;;;1044990;28;20057;-70
2023/10/17 00:15:59;;;;;;;10.05;5.05;;;;;;;;;;1043225;28;20101;-68
2023/10/17 00:16:31;;;;;;;11.60;5.18;;;;;;;;;;1046160;28;20049;-68
2023/10/17 00:17:04;;;;;;;13.85;5.85;;;;;;;;;;1045445;28;20540;-68
2023/10/17 00:17:34;;;;;;;12.55;6.20;;;;;;;;;;1044892;28;20655;-68
2023/10/17 00:18:18;;;;;;;11.07;6.05;;;;;;;;;;1044898;28;20459;-68
2023/10/17 00:18:49;;;;;;;13.60;5.78;;;;;;;;;;1044927;28;20088;-67
2023/10/17 00:19:26;;;;;;;12.95;5.68;;;;;;;;;;1044035;28;20052;-68
2023/10/17 00:19:57;;;;;;;12.20;6.18;;;;;;;;;;1044476;28;20033;-69
2023/10/17 00:20:32;;;;;;;11.52;5.18;;;;;;;;;;1046326;28;20056;-68
2023/10/17 00:21:11;;;;;;;11.35;5.85;;;;;;;;;;1044866;28;20515;-68
2023/10/17 00:21:42;;;;;;;10.85;5.22;;;;;;;;;;1044458;28;20052;-68
2023/10/17 00:22:18;;;;;;;14.73;6.55;;;;;;;;;;1045051;28;20052;-69
2023/10/17 00:22:51;;;;;;;10.48;5.75;;;;;;;;;;1045380;28;20048;-68
2023/10/17 00:23:22;;;;;;;13.70;6.15;;;;;;;;;;1044111;28;20064;-68
2023/10/17 00:23:53;;;;;;;13.02;5.45;;;;;;;;;;1045928;28;20044;-68
2023/10/17 00:24:23;;;;;;;15.82;5.72;;;;;;;;;;1045408;28;20386;-68
2023/10/17 00:24:57;;;;;;;12.00;6.07;;;;;;;;;;1043986;28;20566;-68
2023/10/17 00:25:27;;;;;;;11.93;6.18;;;;;;;;;;1046125;28;20044;-68
2023/10/17 00:26:02;;;;;;;17.88;5.90;;;;;;;;;;1047241;28;20539;-68
2023/10/17 00:26:33;;;;;;;12.38;5.57;;;;;;;;;;1044109;28;20048;-68
2023/10/17 00:27:03;;;;;;;13.98;6.32;;;;;;;;;;1045280;28;20064;-68
2023/10/17 00:27:34;;;;;;;15.18;6.90;;;;;;;;;;1054190;28;20042;-68
2023/10/17 00:28:05;;;;;;;10.63;5.60;;;;;;;;;;1054521;28;20063;-68
2023/10/17 00:28:36;;;;;;;13.70;6.00;;;;;;;;;;1048975;28;20055;-67
2023/10/17 00:29:10;;;;;;;15.75;6.22;;;;;;;;;;1047576;28;20059;-68
2023/10/17 00:29:41;;;;;;;10.38;5.97;;;;;;;;;;1043804;28;20052;-68
2023/10/17 00:30:17;;;;;;;15.65;6.05;;;;;;;;;;1044284;28;20390;-69
2023/10/17 00:30:51;;;;;;;13.73;6.45;;;;;;;;;;1045262;28;20648;-68
2023/10/17 00:31:21;;;;;;;16.13;6.40;;;;;;;;;;1043248;28;20381;-68
2023/10/17 00:31:52;;;;;;;11.75;5.07;;;;;;;;;;1045299;28;20394;-68
2023/10/17 00:32:23;;;;;;;11.32;6.05;;;;;;;;;;1044241;28;20071;-68
2023/10/17 00:32:54;;;;;;;16.63;6.65;;;;;;;;;;1045045;28;20048;-67
2023/10/17 00:33:24;;;;;;;11.50;6.22;;;;;;;;;;1046013;28;20055;-68
2023/10/17 00:33:57;;;;;;;13.32;5.72;;;;;;;;;;1046565;28;20044;-68
2023/10/17 00:34:28;;;;;;;16.70;6.53;;;;;;;;;;1045908;28;20056;-68
2023/10/17 00:34:58;;;;;;;12.05;6.65;;;;;;;;;;1044866;28;20123;-69
2023/10/17 00:35:36;;;;;;;11.23;5.72;;;;;;;;;;1043237;28;21323;-69
2023/10/17 00:36:14;;;;;;;14.30;6.53;;;;;;;;;;1043978;28;20098;-69
2023/10/17 00:36:49;;;;;;;9.63;5.68;;;;;;;;;;1045283;28;20048;-68
2023/10/17 00:37:20;;;;;;;12.30;6.00;;;;;;;;;;1044880;28;20067;-68
2023/10/17 00:37:57;;;;;;;13.45;6.32;;;;;;;;;;1046415;28;20143;-68
2023/10/17 00:38:29;;;;;;;15.23;6.43;;;;;;;;;;1048789;28;20052;-68
2023/10/17 00:39:11;;;;;;;12.68;6.10;;;;;;;;;;1048636;28;20052;-67
2023/10/17 00:39:41;;;;;;;13.98;6.00;;;;;;;;;;1049483;28;20056;-69
2023/10/17 00:40:26;;;;;;;10.88;5.43;;;;;;;;;;1046995;28;20079;-70
2023/10/17 00:40:58;;;;;;;13.18;6.18;;;;;;;;;;1046008;28;20051;-69
2023/10/17 00:41:47;;;;;;;12.90;6.45;;;;;;;;;;1044582;28;20062;-68
2023/10/17 00:42:29;;;;;;;13.07;6.05;;;;;;;;;;1042582;28;20721;-68
2023/10/17 00:43:04;;;;;;;12.63;6.70;;;;;;;;;;1043914;28;20433;-69
2023/10/17 00:43:35;;;;;;;13.13;5.85;;;;;;;;;;1044956;28;20519;-68
2023/10/17 00:44:06;;;;;;;11.02;6.05;;;;;;;;;;1045147;28;20377;-68
2023/10/17 00:44:37;;;;;;;10.82;5.70;;;;;;;;;;1042000;28;20463;-68
2023/10/17 00:45:08;;;;;;;10.98;5.78;;;;;;;;;;1044557;28;20119;-69
2023/10/17 00:45:40;;;;;;;13.20;6.25;;;;;;;;;;1045165;28;20045;-68
2023/10/17 00:46:11;;;;;;;15.85;5.88;;;;;;;;;;1045334;28;20055;-67
2023/10/17 00:46:41;;;;;;;11.75;5.60;;;;;;;;;;1044598;28;20071;-69
2023/10/17 00:47:13;;;;;;;12.02;5.82;;;;;;;;;;1045780;28;20048;-68
2023/10/17 00:47:45;;;;;;;12.82;6.13;;;;;;;;;;1045625;28;20486;-69
2023/10/17 00:48:22;;;;;;;15.35;6.43;;;;;;;;;;1044876;28;20234;-70
2023/10/17 00:48:56;;;;;;;10.55;6.28;;;;;;;;;;1044490;28;20234;-68
2023/10/17 00:49:29;;;;;;;16.02;7.13;;;;;;;;;;1045468;28;20075;-68
2023/10/17 00:50:07;;;;;;;14.25;7.07;;;;;;;;;;1043573;28;20049;-68
2023/10/17 00:50:38;;;;;;;12.55;6.20;;;;;;;;;;1046363;28;20159;-68
2023/10/17 00:51:09;;;;;;;13.48;5.72;;;;;;;;;;1045574;28;20045;-68
2023/10/17 00:51:39;;;;;;;16.45;5.63;;;;;;;;;;1045688;28;20040;-68
2023/10/17 00:52:18;;;;;;;14.02;5.40;;;;;;;;;;1044591;28;20543;-68
2023/10/17 00:52:49;;;;;;;12.75;6.05;;;;;;;;;;1043739;28;20724;-68
2023/10/17 00:53:20;;;;;;;10.98;6.18;;;;;;;;;;1045304;28;20040;-68
2023/10/17 00:53:51;;;;;;;10.18;6.00;;;;;;;;;;1046252;28;20059;-68
2023/10/17 00:54:26;;;;;;;13.10;5.70;;;;;;;;;;1044099;28;20086;-68
2023/10/17 00:54:57;;;;;;;13.05;6.45;;;;;;;;;;1046011;28;20049;-68
2023/10/17 00:55:28;;;;;;;13.88;6.72;;;;;;;;;;1042244;28;20049;-68
2023/10/17 00:55:59;;;;;;;13.63;6.38;;;;;;;;;;1046772;28;20106;-68
2023/10/17 00:56:30;;;;;;;13.93;6.10;;;;;;;;;;1044695;28;20127;-68
2023/10/17 00:57:05;;;;;;;11.38;5.93;;;;;;;;;;1045598;28;20049;-67
2023/10/17 00:57:37;;;;;;;10.65;6.30;;;;;;;;;;1045368;28;20044;-68
2023/10/17 00:58:08;;;;;;;14.52;6.82;;;;;;;;;;1045121;28;20044;-69
2023/10/17 00:58:39;;;;;;;12.10;6.53;;;;;;;;;;1045163;28;21105;-68
2023/10/17 00:59:09;;;;;;;13.43;7.00;;;;;;;;;;1044245;28;20052;-68
2023/10/17 00:59:44;;;;;;;14.73;6.43;;;;;;;;;;1043022;28;20131;-70
2023/10/17 01:00:35;;;;;;;9.70;6.35;;;;;;;;;;1044928;28;20570;-69
2023/10/17 01:01:40;;;;;;;14.82;6.65;;;;;;;;;;1044052;28;20056;-68
2023/10/17 01:02:11;;;;;;;13.48;7.03;;;;;;;;;;1043234;28;20561;-68
2023/10/17 01:02:51;;;;;;;11.25;6.03;;;;;;;;;;1044807;28;20739;-68
2023/10/17 01:03:24;;;;;;;17.23;6.72;;;;;;;;;;1044544;28;20412;-68
2023/10/17 01:03:58;;;;;;;13.52;6.88;;;;;;;;;;1046106;28;20053;-69
2023/10/17 01:04:28;;;;;;;14.48;6.13;;;;;;;;;;1044078;28;20182;-68
2023/10/17 01:04:59;;;;;;;13.20;6.30;;;;;;;;;;1046763;28;20090;-69
2023/10/17 01:05:40;;;;;;;13.82;6.18;;;;;;;;;;1044676;28;20762;-68
2023/10/17 01:06:30;;;;;;;13.43;5.70;;;;;;;;;;1042604;28;20055;-68
2023/10/17 01:07:06;;;;;;;17.52;6.40;;;;;;;;;;1045085;28;20054;-68
2023/10/17 01:07:39;;;;;;;13.10;6.18;;;;;;;;;;1044541;28;20442;-68
2023/10/17 01:08:10;;;;;;;13.18;6.32;;;;;;;;;;1044512;28;20098;-67
2023/10/17 01:08:44;;;;;;;14.25;6.20;;;;;;;;;;1045221;28;20044;-68
2023/10/17 01:09:17;;;;;;;15.60;6.60;;;;;;;;;;1042979;28;20067;-68
2023/10/17 01:09:48;;;;;;;18.40;6.57;;;;;;;;;;1044992;28;20048;-68
2023/10/17 01:10:24;;;;;;;18.15;6.65;;;;;;;;;;1045255;28;20052;-68
2023/10/17 01:10:55;;;;;;;10.65;6.03;;;;;;;;;;1042807;28;20048;-69
2023/10/17 01:11:27;;;;;;;13.60;6.30;;;;;;;;;;1046470;28;20048;-69
2023/10/17 01:11:58;;;;;;;12.13;6.00;;;;;;;;;;1044551;28;20048;-68
2023/10/17 01:12:30;;;;;;;15.95;6.40;;;;;;;;;;1044965;28;20215;-68
2023/10/17 01:13:02;;;;;;;10.48;7.05;;;;;;;;;;1044008;28;20049;-68
2023/10/17 01:13:37;;;;;;;13.00;6.15;;;;;;;;;;1044695;28;20466;-68
2023/10/17 01:14:09;;;;;;;11.63;6.25;;;;;;;;;;1045218;28;20052;-69
2023/10/17 01:14:40;;;;;;;14.13;6.10;;;;;;;;;;1045390;28;20051;-68
2023/10/17 01:15:19;;;;;;;14.20;5.97;;;;;;;;;;1043516;28;20511;-68
2023/10/17 01:15:52;;;;;;;10.55;6.18;;;;;;;;;;1044111;28;20045;-68
2023/10/17 01:16:24;;;;;;;9.50;5.78;;;;;;;;;;1044338;28;20048;-68
2023/10/17 01:16:54;;;;;;;15.75;6.53;;;;;;;;;;1046597;28;20814;-68
2023/10/17 01:17:26;;;;;;;11.93;6.20;;;;;;;;;;1044912;28;20523;-68
2023/10/17 01:18:05;;;;;;;12.68;5.82;;;;;;;;;;1044204;28;20056;-68
2023/10/17 01:18:37;;;;;;;14.50;5.65;;;;;;;;;;1044875;28;20669;-68
2023/10/17 01:19:11;;;;;;;16.10;6.15;;;;;;;;;;1044453;28;20090;-68
2023/10/17 01:19:42;;;;;;;13.35;6.45;;;;;;;;;;1043991;28;20056;-69
2023/10/17 01:20:18;;;;;;;11.65;6.03;;;;;;;;;;1045255;28;20068;-68
2023/10/17 01:20:49;;;;;;;11.70;5.93;;;;;;;;;;1043753;28;20056;-68
2023/10/17 01:21:21;;;;;;;14.52;6.53;;;;;;;;;;1045348;28;20052;-69
2023/10/17 01:21:51;;;;;;;14.02;6.07;;;;;;;;;;1043783;28;20091;-68
2023/10/17 01:22:23;;;;;;;15.45;6.80;;;;;;;;;;1045809;28;21522;-69
2023/10/17 01:22:56;;;;;;;15.80;6.68;;;;;;;;;;1044727;28;20044;-68
2023/10/17 01:23:29;;;;;;;14.48;6.95;;;;;;;;;;1044515;28;20052;-68
2023/10/17 01:24:03;;;;;;;13.90;6.38;;;;;;;;;;1045785;28;21059;-68
2023/10/17 01:24:34;;;;;;;14.23;6.10;;;;;;;;;;1046384;28;20092;-68
2023/10/17 01:25:17;;;;;;;13.70;5.88;;;;;;;;;;1045980;28;20058;-68
2023/10/17 01:25:50;;;;;;;14.82;6.18;;;;;;;;;;1045014;28;20064;-68
2023/10/17 01:26:23;;;;;;;11.68;6.00;;;;;;;;;;1045206;28;20080;-68
2023/10/17 01:26:54;;;;;;;13.25;6.65;;;;;;;;;;1046583;28;20641;-68
2023/10/17 01:27:25;;;;;;;13.88;6.15;;;;;;;;;;1044928;28;20048;-68
2023/10/17 01:27:57;;;;;;;14.35;7.07;;;;;;;;;;1044439;28;20057;-68
2023/10/17 01:28:29;;;;;;;14.40;6.00;;;;;;;;;;1044827;28;20052;-68
2023/10/17 01:29:01;;;;;;;14.63;6.50;;;;;;;;;;1046133;28;20415;-68
2023/10/17 01:29:32;;;;;;;10.90;6.05;;;;;;;;;;1045587;28;20049;-67
2023/10/17 01:30:05;;;;;;;14.85;6.93;;;;;;;;;;1045044;28;20401;-68
2023/10/17 01:30:35;;;;;;;14.02;6.55;;;;;;;;;;1043822;28;20068;-68
2023/10/17 01:31:06;;;;;;;12.73;6.22;;;;;;;;;;1044963;28;20055;-68
2023/10/17 01:31:43;;;;;;;16.35;6.45;;;;;;;;;;1044076;28;20616;-68
2023/10/17 01:32:15;;;;;;;11.85;6.00;;;;;;;;;;1043206;28;20493;-69
2023/10/17 01:32:48;;;;;;;12.50;6.50;;;;;;;;;;1045209;28;20131;-67
2023/10/17 01:33:19;;;;;;;13.13;6.80;;;;;;;;;;1042893;28;20056;-69
2023/10/17 01:33:54;;;;;;;12.88;6.25;;;;;;;;;;1046341;28;20048;-68
2023/10/17 01:34:25;;;;;;;11.98;6.00;;;;;;;;;;1044414;28;20129;-69
2023/10/17 01:34:56;;;;;;;12.80;6.00;;;;;;;;;;1045505;28;20106;-67
2023/10/17 01:35:27;;;;;;;13.60;6.88;;;;;;;;;;1045531;28;20079;-68
2023/10/17 01:35:58;;;;;;;12.80;6.72;;;;;;;;;;1044905;28;20045;-69
2023/10/17 01:36:29;;;;;;;13.73;6.85;;;;;;;;;;1045382;28;20056;-69
2023/10/17 01:36:59;;;;;;;13.23;6.50;;;;;;;;;;1045784;28;20048;-68
2023/10/17 01:37:30;;;;;;;16.08;7.05;;;;;;;;;;1044960;28;20048;-67
2023/10/17 01:38:00;;;;;;;10.07;6.55;;;;;;;;;;1045083;28;20053;-69
2023/10/17 01:38:31;;;;;;;16.90;7.07;;;;;;;;;;1044874;28;20630;-68
2023/10/17 01:39:06;;;;;;;12.73;6.47;;;;;;;;;;1043372;28;20109;-67
2023/10/17 01:39:37;;;;;;;10.38;6.50;;;;;;;;;;1040601;28;20053;-68
2023/10/17 01:40:19;;;;;;;12.80;6.97;;;;;;;;;;1042127;28;20397;-67
2023/10/17 01:40:50;;;;;;;11.68;6.22;;;;;;;;;;1046709;28;20151;-68
2023/10/17 01:41:20;;;;;;;13.05;6.65;;;;;;;;;;1043747;28;20056;-68
2023/10/17 01:41:52;;;;;;;13.73;6.55;;;;;;;;;;1042400;28;20544;-69
2023/10/17 01:42:22;;;;;;;12.80;7.05;;;;;;;;;;1042834;28;20044;-67
2023/10/17 01:42:56;;;;;;;13.80;6.78;;;;;;;;;;1043130;28;20052;-69
2023/10/17 01:43:30;;;;;;;14.32;6.20;;;;;;;;;;1044774;28;20477;-67
2023/10/17 01:44:01;;;;;;;16.65;7.18;;;;;;;;;;1046144;28;20060;-69
2023/10/17 01:44:32;;;;;;;12.55;6.88;;;;;;;;;;1043403;28;20049;-68
2023/10/17 01:45:05;;;;;;;14.95;6.43;;;;;;;;;;1045442;28;20044;-68
2023/10/17 01:45:37;;;;;;;13.15;6.95;;;;;;;;;;1043438;28;20082;-69
2023/10/17 01:46:14;;;;;;;12.82;6.63;;;;;;;;;;1045008;28;20412;-68
2023/10/17 01:46:44;;;;;;;15.23;6.40;;;;;;;;;;1046256;28;20052;-67
2023/10/17 01:47:15;;;;;;;15.20;6.68;;;;;;;;;;1046413;28;20056;-68
2023/10/17 01:47:45;;;;;;;14.02;6.90;;;;;;;;;;1045224;28;20063;-67
2023/10/17 01:48:16;;;;;;;12.57;6.78;;;;;;;;;;1044552;28;20056;-68
2023/10/17 01:48:48;;;;;;;14.80;6.65;;;;;;;;;;1046317;28;20037;-70
2023/10/17 01:49:19;;;;;;;12.25;6.97;;;;;;;;;;1040954;28;20053;-69
2023/10/17 01:49:50;;;;;;;16.42;6.80;;;;;;;;;;1043753;28;20607;-68
2023/10/17 01:50:24;;;;;;;15.07;6.53;;;;;;;;;;1044499;28;20412;-68
2023/10/17 01:50:54;;;;;;;16.20;6.78;;;;;;;;;;1043733;28;20690;-68
2023/10/17 01:51:25;;;;;;;12.30;6.28;;;;;;;;;;1045957;28;20531;-68
2023/10/17 01:51:57;;;;;;;12.60;6.53;;;;;;;;;;1046899;28;20044;-68
2023/10/17 01:52:30;;;;;;;15.77;7.30;;;;;;;;;;1044570;28;20052;-69
2023/10/17 01:53:03;;;;;;;19.92;7.68;;;;;;;;;;1045187;28;20052;-69
2023/10/17 01:53:34;;;;;;;15.75;7.15;;;;;;;;;;1045399;28;20052;-68
2023/10/17 01:54:10;;;;;;;14.27;6.78;;;;;;;;;;1044217;28;20382;-68
2023/10/17 01:54:47;;;;;;;11.95;7.15;;;;;;;;;;1042358;28;20060;-68
2023/10/17 01:55:17;;;;;;;11.07;6.30;;;;;;;;;;1044149;28;20494;-68
2023/10/17 01:56:02;;;;;;;14.93;7.35;;;;;;;;;;1044247;28;20688;-68
2023/10/17 01:56:35;;;;;;;16.02;6.55;;;;;;;;;;1043472;28;20962;-68
2023/10/17 01:57:06;;;;;;;12.73;6.70;;;;;;;;;;1046357;28;20044;-69
2023/10/17 01:57:40;;;;;;;13.73;6.50;;;;;;;;;;1044950;28;20052;-68
2023/10/17 01:58:15;;;;;;;13.18;6.80;;;;;;;;;;1042417;28;20448;-69
2023/10/17 01:58:50;;;;;;;15.65;7.30;;;;;;;;;;1046182;28;20500;-69
2023/10/17 01:59:27;;;;;;;12.88;6.60;;;;;;;;;;1043542;28;20509;-68
2023/10/17 02:00:00;;;;;;;12.40;6.35;;;;;;;;;;1043653;28;20048;-69
2023/10/17 02:01:10;;;;;;;16.40;6.90;;;;;;;;;;1045026;28;20055;-68
2023/10/17 02:01:41;;;;;;;11.45;6.80;;;;;;;;;;1045703;28;20171;-69
2023/10/17 02:02:12;;;;;;;11.55;6.25;;;;;;;;;;1044984;28;20080;-67
2023/10/17 02:02:43;;;;;;;14.32;7.22;;;;;;;;;;1044310;28;20147;-68
2023/10/17 02:03:16;;;;;;;14.65;7.13;;;;;;;;;;1044713;28;20052;-68
2023/10/17 02:03:47;;;;;;;14.18;7.25;;;;;;;;;;1046679;28;20377;-69
2023/10/17 02:04:21;;;;;;;19.42;7.85;;;;;;;;;;1042514;28;20529;-68
2023/10/17 02:04:54;;;;;;;13.95;7.00;;;;;;;;;;1043392;28;20064;-68
2023/10/17 02:05:24;;;;;;;15.02;6.57;;;;;;;;;;1045504;28;20044;-68
2023/10/17 02:05:55;;;;;;;21.08;7.18;;;;;;;;;;1045809;28;20048;-69
2023/10/17 02:06:26;;;;;;;12.77;6.72;;;;;;;;;;1043942;28;20091;-68
2023/10/17 02:06:57;;;;;;;13.68;6.65;;;;;;;;;;1043844;28;20093;-67
2023/10/17 02:07:28;;;;;;;12.40;7.03;;;;;;;;;;1044033;28;20045;-68
2023/10/17 02:07:59;;;;;;;11.68;6.70;;;;;;;;;;1044449;28;20099;-68
2023/10/17 02:08:32;;;;;;;11.95;6.80;;;;;;;;;;1042685;28;20053;-67
2023/10/17 02:10:09;;;;;;;11.93;6.45;;;;;;;;;;1038822;28;20065;-68
2023/10/17 02:10:40;;;;;;;11.98;6.65;;;;;;;;;;1036894;28;20056;-67
2023/10/17 02:11:13;;;;;;;15.27;7.25;;;;;;;;;;1035899;28;20088;-68
2023/10/17 02:11:44;;;;;;;17.38;6.82;;;;;;;;;;1035269;28;20512;-68
2023/10/17 02:12:14;;;;;;;13.05;6.93;;;;;;;;;;1037003;28;20085;-67
2023/10/17 02:12:47;;;;;;;13.85;6.70;;;;;;;;;;1039966;28;20491;-68
2023/10/17 02:13:17;;;;;;;11.80;7.25;;;;;;;;;;1046393;28;20423;-67
2023/10/17 02:13:48;;;;;;;13.45;7.03;;;;;;;;;;1045002;28;20902;-69
2023/10/17 02:14:19;;;;;;;19.25;7.50;;;;;;;;;;1045607;28;20044;-68
2023/10/17 02:14:50;;;;;;;14.88;6.47;;;;;;;;;;1045578;28;20044;-68
2023/10/17 02:15:23;;;;;;;13.30;6.47;;;;;;;;;;1044336;28;20052;-68
2023/10/17 02:15:53;;;;;;;14.05;6.82;;;;;;;;;;1046070;28;20055;-67
2023/10/17 02:16:28;;;;;;;15.32;7.47;;;;;;;;;;1045045;28;20055;-68
2023/10/17 02:16:59;;;;;;;11.63;7.05;;;;;;;;;;1044697;28;20134;-68
2023/10/17 02:17:29;;;;;;;13.63;7.25;;;;;;;;;;1044317;28;20064;-68
2023/10/17 02:18:12;;;;;;;16.00;7.32;;;;;;;;;;1046633;28;20500;-68
2023/10/17 02:18:44;;;;;;;15.07;6.82;;;;;;;;;;1043766;28;20053;-68
2023/10/17 02:19:16;;;;;;;15.25;6.55;;;;;;;;;;1044016;28;20084;-68
2023/10/17 02:19:47;;;;;;;18.92;7.32;;;;;;;;;;1045078;28;20165;-67
2023/10/17 02:20:29;;;;;;;12.13;6.63;;;;;;;;;;1044334;28;20075;-68
2023/10/17 02:21:04;;;;;;;16.45;6.95;;;;;;;;;;1046813;28;20516;-68
2023/10/17 02:21:43;;;;;;;17.10;7.10;;;;;;;;;;1044613;28;20135;-68
2023/10/17 02:22:16;;;;;;;15.65;6.78;;;;;;;;;;1044979;28;20142;-68
2023/10/17 02:22:49;;;;;;;14.57;7.43;;;;;;;;;;1043066;28;20124;-68
2023/10/17 02:23:25;;;;;;;15.48;7.00;;;;;;;;;;1045030;28;20033;-68
2023/10/17 02:23:56;;;;;;;13.02;6.97;;;;;;;;;;1044582;28;20059;-68
2023/10/17 02:24:29;;;;;;;16.83;7.40;;;;;;;;;;1043491;28;20052;-68
2023/10/17 02:24:59;;;;;;;13.82;6.85;;;;;;;;;;1044681;28;20076;-68
2023/10/17 02:25:34;;;;;;;12.90;6.80;;;;;;;;;;1044723;28;20099;-69
2023/10/17 02:26:08;;;;;;;13.48;6.63;;;;;;;;;;1046308;28;20048;-68
2023/10/17 02:26:42;;;;;;;14.98;7.50;;;;;;;;;;1044632;28;20056;-68
2023/10/17 02:27:13;;;;;;;16.40;6.95;;;;;;;;;;1044015;28;20040;-69
2023/10/17 02:27:44;;;;;;;15.85;7.07;;;;;;;;;;1043072;28;20048;-67
2023/10/17 02:28:15;;;;;;;15.85;7.20;;;;;;;;;;1044619;28;20108;-68
2023/10/17 02:28:48;;;;;;;13.48;7.28;;;;;;;;;;1044538;28;20041;-67
2023/10/17 02:29:23;;;;;;;14.50;7.32;;;;;;;;;;1044646;28;20375;-68
2023/10/17 02:29:54;;;;;;;14.25;7.00;;;;;;;;;;1043397;28;20118;-67
2023/10/17 02:30:24;;;;;;;13.93;6.95;;;;;;;;;;1043617;28;20094;-67
2023/10/17 02:30:58;;;;;;;17.13;7.82;;;;;;;;;;1044444;28;20071;-67
2023/10/17 02:31:32;;;;;;;15.57;6.75;;;;;;;;;;1045531;28;20059;-68
2023/10/17 02:32:03;;;;;;;16.05;7.10;;;;;;;;;;1044922;28;20867;-68
2023/10/17 02:32:35;;;;;;;14.88;6.85;;;;;;;;;;1043546;28;20064;-68
2023/10/17 02:33:17;;;;;;;14.27;6.85;;;;;;;;;;1042866;28;20808;-69
2023/10/17 02:33:47;;;;;;;14.07;7.97;;;;;;;;;;1041430;28;20052;-68
2023/10/17 02:34:22;;;;;;;16.08;7.03;;;;;;;;;;1040955;28;20057;-68
2023/10/17 02:34:52;;;;;;;14.68;7.00;;;;;;;;;;1039221;28;20041;-68
2023/10/17 02:35:39;;;;;;;17.35;6.70;;;;;;;;;;1043294;28;20049;-68
2023/10/17 02:36:13;;;;;;;15.57;6.57;;;;;;;;;;1044745;28;20048;-68
2023/10/17 02:36:44;;;;;;;12.90;6.68;;;;;;;;;;1044944;28;20131;-68
2023/10/17 02:37:17;;;;;;;13.95;6.93;;;;;;;;;;1044120;28;20056;-68
2023/10/17 02:37:48;;;;;;;11.27;6.82;;;;;;;;;;1045145;28;20098;-68
2023/10/17 02:38:20;;;;;;;14.07;7.00;;;;;;;;;;1044530;28;20106;-69
2023/10/17 02:38:51;;;;;;;15.75;6.82;;;;;;;;;;1045086;28;20706;-68
2023/10/17 02:39:22;;;;;;;14.10;6.80;;;;;;;;;;1042855;28;20504;-69
2023/10/17 02:39:52;;;;;;;11.93;6.53;;;;;;;;;;1045852;28;20139;-68
2023/10/17 02:40:23;;;;;;;16.63;7.32;;;;;;;;;;1046219;28;20060;-68
2023/10/17 02:40:54;;;;;;;12.13;6.57;;;;;;;;;;1044240;28;20119;-68
2023/10/17 02:41:25;;;;;;;12.48;7.13;;;;;;;;;;1045578;28;20048;-68
2023/10/17 02:41:58;;;;;;;19.25;7.20;;;;;;;;;;1045149;28;20049;-68
2023/10/17 02:42:29;;;;;;;17.00;7.47;;;;;;;;;;1043953;28;20059;-67
2023/10/17 02:43:00;;;;;;;12.68;6.97;;;;;;;;;;1043394;28;20044;-68
2023/10/17 02:43:34;;;;;;;14.00;6.82;;;;;;;;;;1044442;28;20420;-67
2023/10/17 02:44:05;;;;;;;14.15;8.05;;;;;;;;;;1045657;28;20048;-68
2023/10/17 02:44:43;;;;;;;15.80;7.03;;;;;;;;;;1044135;28;20063;-68
2023/10/17 02:45:24;;;;;;;18.40;6.32;;;;;;;;;;1041894;28;20061;-69
2023/10/17 02:45:59;;;;;;;13.35;7.03;;;;;;;;;;1043227;28;20127;-68
2023/10/17 02:46:30;;;;;;;14.15;6.78;;;;;;;;;;1044927;28;20063;-68
2023/10/17 02:47:05;;;;;;;15.70;6.40;;;;;;;;;;1045940;28;20045;-69
2023/10/17 02:47:36;;;;;;;15.68;6.93;;;;;;;;;;1041458;28;20052;-68
2023/10/17 02:48:23;;;;;;;12.95;6.30;;;;;;;;;;1046451;28;20122;-68
2023/10/17 02:48:54;;;;;;;17.98;6.70;;;;;;;;;;1044926;28;20052;-70
2023/10/17 02:49:27;;;;;;;14.65;6.78;;;;;;;;;;1042363;28;20049;-68
2023/10/17 02:49:58;;;;;;;13.75;7.10;;;;;;;;;;1045609;28;20048;-68
2023/10/17 02:51:11;;;;;;;15.80;7.03;;;;;;;;;;1044854;28;20087;-67
2023/10/17 02:51:45;;;;;;;15.65;6.97;;;;;;;;;;1044652;28;20098;-68
2023/10/17 02:52:17;;;;;;;15.32;7.13;;;;;;;;;;1045402;28;20136;-68
2023/10/17 02:52:51;;;;;;;14.00;6.97;;;;;;;;;;1044726;28;20125;-67
2023/10/17 02:53:24;;;;;;;17.17;6.88;;;;;;;;;;1043985;28;20095;-68
2023/10/17 02:53:56;;;;;;;12.13;6.57;;;;;;;;;;1046259;28;20177;-69
2023/10/17 02:54:27;;;;;;;15.65;6.63;;;;;;;;;;1044397;28;20481;-69
2023/10/17 02:54:59;;;;;;;12.18;6.75;;;;;;;;;;1045550;28;20053;-68
2023/10/17 02:55:30;;;;;;;14.85;6.47;;;;;;;;;;1044964;28;20591;-68
2023/10/17 02:56:18;;;;;;;12.50;6.43;;;;;;;;;;1046241;28;20048;-69
2023/10/17 02:56:53;;;;;;;13.20;7.10;;;;;;;;;;1039814;28;20053;-67
2023/10/17 02:57:23;;;;;;;19.45;7.78;;;;;;;;;;1044398;28;20838;-68
2023/10/17 02:57:54;;;;;;;15.02;6.78;;;;;;;;;;1044448;28;20436;-68
2023/10/17 02:58:25;;;;;;;14.65;6.93;;;;;;;;;;1045141;28;20052;-68
2023/10/17 02:59:06;;;;;;;16.52;7.35;;;;;;;;;;1044994;28;20048;-68
2023/10/17 02:59:37;;;;;;;12.95;6.97;;;;;;;;;;1044557;28;20060;-68
2023/10/17 03:00:20;;;;;;;14.77;7.03;;;;;;;;;;1042535;28;20052;-68
2023/10/17 03:00:50;;;;;;;16.45;7.57;;;;;;;;;;1045794;28;20044;-68
2023/10/17 03:01:22;;;;;;;17.77;7.22;;;;;;;;;;1044994;28;20048;-69
2023/10/17 03:01:53;;;;;;;13.95;6.97;;;;;;;;;;1044959;28;20124;-68
2023/10/17 03:02:26;;;;;;;15.20;6.80;;;;;;;;;;1043905;28;20056;-67
2023/10/17 03:02:57;;;;;;;15.18;7.35;;;;;;;;;;1044562;28;20485;-67
2023/10/17 03:03:29;;;;;;;17.48;7.38;;;;;;;;;;1041871;28;20059;-68
2023/10/17 03:04:10;;;;;;;17.42;8.05;;;;;;;;;;1046151;28;20135;-68
2023/10/17 03:04:42;;;;;;;17.02;7.80;;;;;;;;;;1044950;28;20056;-68
2023/10/17 03:05:12;;;;;;;15.57;7.28;;;;;;;;;;1043787;28;20440;-69
2023/10/17 03:05:44;;;;;;;14.07;7.13;;;;;;;;;;1044302;28;20440;-69
2023/10/17 03:06:16;;;;;;;13.77;7.03;;;;;;;;;;1044998;28;20048;-68
2023/10/17 03:06:47;;;;;;;10.50;6.82;;;;;;;;;;1043960;28;20143;-69
2023/10/17 03:07:17;;;;;;;16.00;7.30;;;;;;;;;;1044170;28;20056;-68
2023/10/17 03:07:51;;;;;;;16.67;8.18;;;;;;;;;;1044067;28;20040;-68
2023/10/17 03:08:22;;;;;;;13.73;7.70;;;;;;;;;;1042828;28;20052;-68
2023/10/17 03:08:53;;;;;;;14.27;7.25;;;;;;;;;;1044912;28;20111;-68
2023/10/17 03:09:54;;;;;;;16.48;7.55;;;;;;;;;;1043511;28;20939;-68
2023/10/17 03:10:37;;;;;;;15.93;7.47;;;;;;;;;;1045928;28;20050;-68
2023/10/17 03:11:16;;;;;;;15.30;7.47;;;;;;;;;;1043194;28;20281;-69
2023/10/17 03:11:51;;;;;;;14.98;7.40;;;;;;;;;;1044359;28;20481;-68
2023/10/17 03:12:29;;;;;;;17.60;7.90;;;;;;;;;;1042100;28;20191;-68
2023/10/17 03:13:05;;;;;;;14.10;7.97;;;;;;;;;;1042644;28;20045;-68
2023/10/17 03:13:43;;;;;;;15.23;7.88;;;;;;;;;;1043224;28;20108;-68
2023/10/17 03:14:19;;;;;;;15.57;6.75;;;;;;;;;;1043158;28;20100;-68
2023/10/17 03:15:18;;;;;;;15.52;7.00;;;;;;;;;;1041925;28;20393;-68
2023/10/17 03:15:46;;;;;;;15.75;7.97;;;;;;;;;;1043645;28;20048;-69
2023/10/17 03:16:26;;;;;;;15.13;7.57;;;;;;;;;;1044276;28;20040;-68
2023/10/17 03:16:56;;;;;;;15.32;7.10;;;;;;;;;;1041944;28;20110;-68
2023/10/17 03:17:28;;;;;;;14.65;7.20;;;;;;;;;;1043903;28;20048;-68
2023/10/17 03:18:01;;;;;;;13.88;7.47;;;;;;;;;;1043266;28;20085;-68
2023/10/17 03:18:37;;;;;;;18.50;8.30;;;;;;;;;;1041563;28;20080;-68
2023/10/17 03:19:11;;;;;;;17.60;7.82;;;;;;;;;;1043155;28;20049;-68
2023/10/17 03:19:42;;;;;;;14.30;7.10;;;;;;;;;;1044124;28;20121;-68
2023/10/17 03:20:16;;;;;;;14.43;7.72;;;;;;;;;;1043232;28;20059;-69
2023/10/17 03:20:50;;;;;;;14.60;7.82;;;;;;;;;;1045188;28;20048;-67
2023/10/17 03:21:30;;;;;;;16.05;7.97;;;;;;;;;;1045012;28;20405;-68
2023/10/17 03:22:16;;;;;;;12.48;7.65;;;;;;;;;;1044216;28;20052;-67